createdAt,value
2019-02-22T00:02:02.242Z,33.05
2019-02-22T00:04:30.724Z,41.58
2019-02-22T00:06:59.206Z,36.68
2019-02-22T00:09:27.816Z,38.10
2019-02-22T00:11:56.267Z,40.38
2019-02-22T00:14:24.850Z,48.10
2019-02-22T00:16:53.435Z,35.55
2019-02-22T00:19:22.176Z,41.63
2019-02-22T00:21:50.810Z,40.83
2019-02-22T00:24:19.411Z,37.23
2019-02-22T00:26:48.093Z,43.87
2019-02-22T00:29:16.778Z,41.08
2019-02-22T00:31:45.550Z,47.30
2019-02-22T00:34:14.179Z,41.95
2019-02-22T00:36:42.713Z,39.38
2019-02-22T00:39:11.452Z,43.65
2019-02-22T00:41:40.196Z,43.70
2019-02-22T00:44:08.669Z,44.45
2019-02-22T00:46:37.466Z,38.60
2019-02-22T00:49:07.067Z,39.05
2019-02-22T00:51:35.692Z,45.90
2019-02-22T00:54:04.541Z,41.28
2019-02-22T00:56:33.433Z,48.00
2019-02-22T00:59:02.013Z,51.25
2019-02-22T01:01:30.494Z,46.65
2019-02-22T01:03:58.974Z,50.00
2019-02-22T01:06:27.559Z,43.45
2019-02-22T01:08:56.038Z,46.77
2019-02-22T01:11:24.726Z,51.53
2019-02-22T01:13:53.415Z,47.98
2019-02-22T01:16:22.204Z,48.38
2019-02-22T01:18:50.788Z,45.85
2019-02-22T01:21:20.395Z,50.92
2019-02-22T01:23:49.082Z,52.90
2019-02-22T01:26:17.766Z,46.68
2019-02-22T01:28:46.453Z,48.02
2019-02-22T01:31:15.243Z,47.35
2019-02-22T01:33:43.923Z,57.60
2019-02-22T01:36:12.610Z,52.80
2019-02-22T01:38:41.295Z,55.33
2019-02-22T01:41:09.982Z,52.90
2019-02-22T01:43:38.668Z,49.63
2019-02-22T01:46:07.353Z,50.70
2019-02-22T01:48:36.039Z,53.78
2019-02-22T01:51:04.623Z,51.05
2019-02-22T01:53:33.303Z,56.30
2019-02-22T01:56:02.091Z,51.88
2019-02-22T01:58:30.675Z,53.73
2019-02-22T02:00:59.361Z,52.23
2019-02-22T02:03:27.951Z,60.23
2019-02-22T02:05:56.637Z,59.25
2019-02-22T02:08:25.323Z,59.73
2019-02-22T02:10:54.540Z,64.60
2019-02-22T02:13:23.195Z,61.45
2019-02-22T02:15:51.683Z,60.58
2019-02-22T02:18:20.471Z,70.45
2019-02-22T02:20:49.188Z,68.15
2019-02-22T02:23:17.943Z,67.62
2019-02-22T02:25:46.523Z,73.95
2019-02-22T02:28:15.107Z,82.97
2019-02-22T02:30:43.690Z,86.92
2019-02-22T02:33:12.169Z,83.85
2019-02-22T02:35:40.752Z,104.83
2019-02-22T02:38:09.336Z,102.75
2019-02-22T02:40:37.815Z,108.83
2019-02-22T02:43:06.400Z,111.77
2019-02-22T02:45:35.046Z,109.37
2019-02-22T02:48:03.770Z,103.65
2019-02-22T02:50:32.254Z,111.90
2019-02-22T02:53:00.835Z,125.27
2019-02-22T02:55:31.900Z,119.80
2019-02-22T02:58:00.466Z,109.27
2019-02-22T03:00:29.032Z,108.95
2019-02-22T03:02:57.625Z,103.20
2019-02-22T03:05:37.164Z,109.95
2019-02-22T03:08:05.750Z,109.83
2019-02-22T03:10:34.231Z,109.12
2019-02-22T03:13:03.016Z,97.67
2019-02-22T03:15:31.600Z,107.27
2019-02-22T03:18:00.082Z,161.47
2019-02-22T03:20:28.665Z,184.18
2019-02-22T03:22:57.154Z,143.10
2019-02-22T03:25:25.626Z,159.25
2019-02-22T03:27:54.313Z,140.60
2019-02-22T03:30:22.906Z,146.00
2019-02-22T03:32:51.479Z,179.75
2019-02-22T03:35:20.165Z,198.43
2019-02-22T03:37:48.749Z,269.98
2019-02-22T03:40:17.228Z,269.52
2019-02-22T03:42:45.812Z,183.35
2019-02-22T03:45:14.296Z,213.00
2019-02-22T03:47:42.879Z,206.38
2019-02-22T03:50:11.459Z,210.85
2019-02-22T03:52:41.988Z,219.75
2019-02-22T03:55:10.574Z,215.28
2019-02-22T03:57:39.260Z,214.82
2019-02-22T04:00:10.510Z,221.57
2019-02-22T04:02:39.087Z,217.57
2019-02-22T04:05:09.295Z,250.55
2019-02-22T04:07:37.793Z,230.32
2019-02-22T04:10:07.843Z,232.67
2019-02-22T04:12:36.499Z,223.60
2019-02-22T04:15:10.100Z,234.50
2019-02-22T04:17:38.678Z,251.18
2019-02-22T04:20:09.896Z,241.30
2019-02-22T04:22:38.503Z,322.75
2019-02-22T04:25:07.095Z,299.30
2019-02-22T04:27:35.671Z,240.50
2019-02-22T04:30:06.505Z,258.75
2019-02-22T04:32:35.091Z,224.12
2019-02-22T04:35:03.695Z,226.47
2019-02-22T04:37:32.462Z,254.05
2019-02-22T04:40:01.146Z,244.13
2019-02-22T04:42:29.627Z,227.72
2019-02-22T04:44:58.210Z,273.18
2019-02-22T04:50:14.731Z,203.27
2019-02-22T04:52:43.313Z,219.90
2019-02-22T04:55:11.897Z,199.10
2019-02-22T04:57:40.586Z,221.35
2019-02-22T05:00:09.064Z,226.32
2019-02-22T05:02:37.956Z,210.53
2019-02-22T05:05:07.064Z,214.30
2019-02-22T05:07:35.997Z,217.53
2019-02-22T05:10:05.242Z,223.50
2019-02-22T05:12:33.720Z,290.98
2019-02-22T05:15:11.973Z,255.60
2019-02-22T05:17:35.669Z,239.40
2019-02-22T05:20:03.259Z,241.27
2019-02-22T05:22:31.943Z,231.07
2019-02-22T05:25:00.555Z,249.42
2019-02-22T05:27:29.317Z,283.47
2019-02-22T05:29:58.554Z,249.25
2019-02-22T05:32:27.100Z,264.65
2019-02-22T05:34:55.786Z,261.92
2019-02-22T05:37:24.469Z,285.65
2019-02-22T05:39:53.358Z,288.87
2019-02-22T05:42:23.267Z,340.05
2019-02-22T05:44:52.370Z,244.10
2019-02-22T05:47:21.054Z,241.02
2019-02-22T05:49:49.650Z,257.83
2019-02-22T05:52:18.625Z,260.25
2019-02-22T05:54:47.834Z,289.12
2019-02-22T05:57:16.429Z,244.72
2019-02-22T05:59:45.098Z,216.93
2019-02-22T06:02:14.743Z,215.87
2019-02-22T06:04:43.803Z,202.30
2019-02-22T06:07:14.574Z,190.18
2019-02-22T06:09:42.810Z,218.05
2019-02-22T06:12:11.515Z,175.10
2019-02-22T06:14:40.299Z,180.82
2019-02-22T06:17:14.567Z,207.77
2019-02-22T06:19:39.204Z,220.60
2019-02-22T06:22:07.877Z,258.32
2019-02-22T06:24:36.463Z,213.50
2019-02-22T06:27:05.048Z,201.60
2019-02-22T06:29:33.633Z,212.57
2019-02-22T06:32:02.211Z,228.52
2019-02-22T06:34:30.799Z,228.85
2019-02-22T06:37:02.071Z,213.40
2019-02-22T06:39:29.613Z,236.62
2019-02-22T06:41:58.184Z,207.90
2019-02-22T06:44:26.766Z,255.00
2019-02-22T06:46:55.349Z,212.35
2019-02-22T06:49:24.037Z,199.82
2019-02-22T06:51:52.735Z,204.90
2019-02-22T06:54:21.308Z,186.55
2019-02-22T06:56:49.786Z,171.30
2019-02-22T06:59:18.366Z,206.75
2019-02-22T07:01:49.923Z,185.55
2019-02-22T07:04:17.276Z,177.70
2019-02-22T07:06:45.857Z,185.30
2019-02-22T07:09:14.545Z,170.82
2019-02-22T07:11:47.838Z,174.45
2019-02-22T07:14:16.425Z,175.70
2019-02-22T07:16:45.209Z,165.47
2019-02-22T07:19:13.795Z,158.50
2019-02-22T07:21:52.137Z,163.20
2019-02-22T07:24:12.704Z,150.35
2019-02-22T07:26:41.282Z,151.63
2019-02-22T07:29:09.865Z,139.97
2019-02-22T07:31:38.658Z,129.78
2019-02-22T07:34:07.339Z,126.95
2019-02-22T07:36:35.925Z,134.90
2019-02-22T07:39:05.419Z,122.42
2019-02-22T07:41:33.913Z,133.37
2019-02-22T07:44:02.698Z,131.05
2019-02-22T07:46:31.286Z,124.27
2019-02-22T07:48:59.866Z,110.10
2019-02-22T07:51:28.553Z,109.50
2019-02-22T07:53:57.033Z,111.47
2019-02-22T07:56:25.616Z,110.32
2019-02-22T07:58:54.201Z,115.37
2019-02-22T08:01:22.793Z,109.35
2019-02-22T08:03:51.468Z,114.28
2019-02-22T08:06:20.153Z,113.20
2019-02-22T08:08:48.838Z,103.92
2019-02-22T08:11:17.421Z,105.25
2019-02-22T08:13:46.005Z,97.85
2019-02-22T08:16:14.689Z,98.80
2019-02-22T08:18:43.276Z,101.95
2019-02-22T08:21:11.747Z,94.32
2019-02-22T08:23:40.350Z,108.47
2019-02-22T08:26:08.920Z,102.07
2019-02-22T08:28:37.402Z,107.32
2019-02-22T08:31:05.986Z,105.25
2019-02-22T08:33:34.568Z,97.02
2019-02-22T08:36:03.049Z,100.33
2019-02-22T08:38:31.737Z,104.27
2019-02-22T08:41:00.317Z,102.85
2019-02-22T08:43:31.746Z,99.75
2019-02-22T08:45:59.024Z,100.18
2019-02-22T08:48:27.604Z,106.50
2019-02-22T08:50:56.289Z,107.07
2019-02-22T08:53:24.776Z,99.92
2019-02-22T08:55:53.341Z,102.02
2019-02-22T08:58:22.040Z,94.50
2019-02-22T09:00:50.624Z,95.67
2019-02-22T09:03:19.309Z,96.30
2019-02-22T09:05:48.150Z,93.27
2019-02-22T09:08:16.888Z,94.62
2019-02-22T09:10:45.469Z,100.10
2019-02-22T09:13:14.158Z,106.22
2019-02-22T09:15:42.737Z,88.50
2019-02-22T09:18:11.424Z,103.85
2019-02-22T09:20:39.908Z,91.15
2019-02-22T09:23:08.489Z,94.47
2019-02-22T09:25:37.276Z,86.55
2019-02-22T09:28:05.851Z,96.87
2019-02-22T09:30:34.345Z,98.85
2019-02-22T09:33:02.924Z,90.90
2019-02-22T09:35:31.505Z,91.35
2019-02-22T09:38:00.093Z,87.75
2019-02-22T09:40:28.575Z,86.35
2019-02-22T09:42:57.051Z,83.12
2019-02-22T09:45:25.635Z,80.50
2019-02-22T09:47:54.218Z,74.42
2019-02-22T09:50:22.700Z,85.42
2019-02-22T09:52:51.186Z,80.97
2019-02-22T09:55:19.765Z,87.35
2019-02-22T09:57:48.364Z,82.30
2019-02-22T10:00:16.827Z,83.20
2019-02-22T10:02:45.420Z,79.85
2019-02-22T10:05:14.412Z,78.97
2019-02-22T10:07:42.991Z,82.30
2019-02-22T10:10:12.026Z,76.45
2019-02-22T10:12:40.982Z,69.67
2019-02-22T10:15:10.587Z,83.62
2019-02-22T10:17:39.151Z,76.60
2019-02-22T10:20:09.385Z,74.67
2019-02-22T10:22:37.843Z,75.85
2019-02-22T10:25:07.105Z,75.50
2019-02-22T10:27:35.653Z,71.90
2019-02-22T10:30:06.490Z,68.65
2019-02-22T10:32:35.170Z,85.17
2019-02-22T10:35:03.947Z,71.53
2019-02-22T10:37:32.570Z,76.42
2019-02-22T10:40:01.249Z,78.57
2019-02-22T10:42:29.814Z,78.62
2019-02-22T10:44:58.499Z,76.30
2019-02-22T10:47:27.072Z,71.37
2019-02-22T10:49:55.769Z,70.17
2019-02-22T10:52:24.456Z,80.30
2019-02-22T10:54:53.136Z,75.85
2019-02-22T10:57:21.822Z,75.20
2019-02-22T10:59:50.610Z,77.12
2019-02-22T11:02:19.299Z,71.15
2019-02-22T11:04:47.998Z,81.72
2019-02-22T11:07:16.673Z,76.42
2019-02-22T11:09:45.352Z,85.90
2019-02-22T11:12:14.039Z,78.07
2019-02-22T11:14:42.645Z,80.47
2019-02-22T11:17:11.208Z,73.65
2019-02-22T11:19:39.788Z,75.22
2019-02-22T11:22:08.463Z,70.57
2019-02-22T11:24:37.385Z,76.97
2019-02-22T11:27:05.952Z,72.05
2019-02-22T11:29:34.537Z,72.00
2019-02-22T11:32:03.120Z,80.12
2019-02-22T11:34:31.720Z,78.17
2019-02-22T11:37:00.180Z,82.78
2019-02-22T11:39:28.768Z,75.80
2019-02-22T11:41:57.554Z,75.57
2019-02-22T11:44:27.061Z,77.25
2019-02-22T11:46:55.649Z,75.03
2019-02-22T11:49:24.224Z,81.22
2019-02-22T11:51:59.477Z,73.62
2019-02-22T11:54:29.092Z,78.00
2019-02-22T11:56:57.850Z,77.90
2019-02-22T11:59:26.664Z,78.05
2019-02-22T12:01:55.230Z,84.42
2019-02-22T12:04:24.016Z,77.82
2019-02-22T12:06:52.601Z,76.55
2019-02-22T12:09:21.696Z,64.85
2019-02-22T12:11:50.279Z,72.10
2019-02-22T12:14:18.966Z,67.55
2019-02-22T12:16:48.092Z,74.65
2019-02-22T12:19:16.775Z,72.30
2019-02-22T12:21:46.107Z,70.57
2019-02-22T12:24:14.780Z,66.10
2019-02-22T12:26:43.316Z,73.52
2019-02-22T12:29:11.783Z,67.58
2019-02-22T12:31:40.396Z,62.65
2019-02-22T12:34:08.866Z,66.40
2019-02-22T12:36:37.448Z,74.60
2019-02-22T12:39:06.832Z,64.47
2019-02-22T12:41:35.535Z,70.50
2019-02-22T12:44:04.117Z,60.65
2019-02-22T12:46:32.599Z,60.58
2019-02-22T12:49:01.180Z,57.80
2019-02-22T12:51:29.871Z,53.90
2019-02-22T12:53:58.456Z,36.45
2019-02-22T12:56:56.098Z,48.55
2019-02-22T12:58:57.665Z,63.00
2019-02-22T13:01:26.354Z,47.08
2019-02-22T13:03:55.240Z,30.60
2019-02-22T13:06:23.929Z,39.53
2019-02-22T13:08:52.516Z,36.58
2019-02-22T13:11:21.718Z,36.85
2019-02-22T13:13:50.293Z,37.83
2019-02-22T13:16:18.770Z,30.70
2019-02-22T13:18:47.364Z,38.90
2019-02-22T13:21:16.552Z,30.20
2019-02-22T13:23:45.033Z,39.65
2019-02-22T13:26:13.826Z,32.53
2019-02-22T13:28:42.405Z,39.65
2019-02-22T13:31:11.794Z,34.85
2019-02-22T13:33:40.420Z,38.70
2019-02-22T13:36:09.193Z,38.15
2019-02-22T13:38:38.082Z,43.80
2019-02-22T13:41:06.850Z,35.83
2019-02-22T13:43:35.551Z,36.65
2019-02-22T13:46:04.540Z,34.98
2019-02-22T13:48:33.229Z,36.40
2019-02-22T13:51:01.829Z,30.75
2019-02-22T13:53:30.757Z,34.58
2019-02-22T13:55:59.491Z,39.88
2019-02-22T13:58:28.176Z,32.20
2019-02-22T14:00:58.911Z,36.85
2019-02-22T14:03:28.608Z,39.25
2019-02-22T14:05:57.409Z,42.45
2019-02-22T14:08:25.985Z,36.20
2019-02-22T14:10:54.674Z,35.80
2019-02-22T14:13:23.357Z,37.42
2019-02-22T14:15:51.942Z,28.87
2019-02-22T14:18:20.524Z,23.92
2019-02-22T14:20:49.315Z,29.02
2019-02-22T14:23:17.898Z,25.50
2019-02-22T14:25:46.991Z,32.93
2019-02-22T14:28:15.472Z,25.17
2019-02-22T14:30:44.399Z,27.35
2019-02-22T14:33:12.947Z,23.35
2019-02-22T14:35:41.835Z,28.00
2019-02-22T14:38:10.540Z,29.85
2019-02-22T14:40:39.109Z,20.55
2019-02-22T14:43:15.983Z,24.32
2019-02-22T14:45:48.962Z,21.30
2019-02-22T14:48:09.161Z,27.58
2019-02-22T14:50:38.259Z,26.90
2019-02-22T14:53:06.939Z,36.35
2019-02-22T14:55:35.934Z,34.73
2019-02-22T14:58:04.439Z,28.80
2019-02-22T15:00:33.506Z,25.77
2019-02-22T15:03:02.190Z,18.73
2019-02-22T15:05:31.391Z,13.32
2019-02-22T15:08:00.699Z,19.77
2019-02-22T15:10:29.480Z,25.32
2019-02-22T15:12:57.958Z,18.10
2019-02-22T15:15:37.297Z,10.95
2019-02-22T15:18:07.515Z,13.68
2019-02-22T15:20:36.200Z,18.05
2019-02-22T15:23:04.786Z,13.85
2019-02-22T15:25:33.372Z,25.35
2019-02-22T15:28:02.276Z,16.17
2019-02-22T15:30:31.675Z,16.65
2019-02-22T15:33:00.246Z,21.17
2019-02-22T15:35:28.799Z,20.70
2019-02-22T15:37:57.310Z,20.15
2019-02-22T15:40:25.894Z,18.05
2019-02-22T15:42:54.486Z,19.80
2019-02-22T15:45:23.162Z,19.07
2019-02-22T15:47:51.864Z,23.55
2019-02-22T15:50:20.645Z,22.82
2019-02-22T15:52:50.565Z,22.25
2019-02-22T15:55:19.132Z,23.92
2019-02-22T15:57:47.608Z,22.20
2019-02-22T16:00:25.151Z,28.05
2019-02-22T16:02:53.794Z,22.98
2019-02-22T16:05:27.110Z,22.22
2019-02-22T16:07:55.862Z,21.12
2019-02-22T16:10:24.458Z,25.75
2019-02-22T16:12:53.041Z,20.95
2019-02-22T16:15:22.032Z,20.52
2019-02-22T16:17:50.617Z,22.45
2019-02-22T16:20:19.405Z,24.40
2019-02-22T16:22:50.731Z,19.82
2019-02-22T16:25:20.010Z,21.97
2019-02-22T16:27:48.642Z,27.87
2019-02-22T16:30:19.372Z,28.23
2019-02-22T16:32:48.058Z,32.40
2019-02-22T16:35:16.642Z,33.10
2019-02-22T16:37:45.223Z,37.45
2019-02-22T16:40:13.808Z,36.95
2019-02-22T16:42:42.492Z,37.33
2019-02-22T16:45:12.458Z,40.73
2019-02-22T16:47:40.991Z,37.08
2019-02-22T16:50:12.344Z,37.25
2019-02-22T16:52:40.927Z,37.03
2019-02-22T16:55:15.546Z,33.05
2019-02-22T16:57:44.233Z,35.70
2019-02-22T17:00:14.601Z,37.20
2019-02-22T17:02:43.345Z,40.75
2019-02-22T17:05:14.395Z,36.90
2019-02-22T17:07:42.970Z,40.83
2019-02-22T17:10:11.860Z,41.73
2019-02-22T17:12:40.544Z,43.90
2019-02-22T17:15:11.797Z,36.85
2019-02-22T17:17:40.792Z,36.23
2019-02-22T17:20:11.618Z,33.38
2019-02-22T17:22:40.308Z,31.65
2019-02-22T17:25:11.858Z,36.40
2019-02-22T17:27:40.794Z,34.57
2019-02-22T17:30:12.701Z,38.20
2019-02-22T17:32:41.309Z,41.45
2019-02-22T17:35:10.185Z,39.65
2019-02-22T17:37:38.772Z,43.25
2019-02-22T17:40:15.237Z,31.35
2019-02-22T17:42:43.725Z,29.65
2019-02-22T17:45:12.301Z,26.25
2019-02-22T17:47:40.906Z,27.32
2019-02-22T17:50:10.250Z,33.00
2019-02-22T17:52:38.989Z,29.42
2019-02-22T17:55:09.808Z,30.82
2019-02-22T17:57:40.214Z,34.60
2019-02-22T18:00:16.620Z,37.75
2019-02-22T18:02:45.091Z,41.33
2019-02-22T18:05:13.773Z,51.53
2019-02-22T18:07:42.354Z,50.55
2019-02-22T18:10:11.948Z,45.63
2019-02-22T18:12:40.440Z,49.20
2019-02-22T18:15:13.965Z,46.23
2019-02-22T18:18:02.066Z,47.38
2019-02-22T18:20:30.870Z,50.83
2019-02-22T18:22:59.451Z,56.75
2019-02-22T18:25:28.227Z,54.85
2019-02-22T18:27:56.936Z,45.43
2019-02-22T18:30:25.722Z,45.05
2019-02-22T18:32:54.318Z,42.20
2019-02-22T18:35:23.103Z,48.33
2019-02-22T18:37:54.114Z,48.52
2019-02-22T18:40:23.537Z,44.53
2019-02-22T18:43:02.659Z,51.98
2019-02-22T18:45:31.357Z,49.90
2019-02-22T18:48:00.340Z,47.20
2019-02-22T18:50:28.820Z,49.70
2019-02-22T18:52:57.510Z,48.05
2019-02-22T18:55:25.984Z,52.50
2019-02-22T18:57:54.571Z,53.20
2019-02-22T19:00:23.263Z,51.68
2019-02-22T19:02:51.739Z,79.12
2019-02-22T19:05:20.424Z,47.73
2019-02-22T19:07:49.521Z,51.05
2019-02-22T19:10:19.148Z,50.78
2019-02-22T19:12:47.819Z,48.48
2019-02-22T19:15:16.520Z,47.75
2019-02-22T19:17:45.316Z,49.83
2019-02-22T19:20:18.378Z,51.18
2019-02-22T19:25:22.605Z,50.85
2019-02-22T19:27:51.089Z,51.15
2019-02-22T19:30:24.588Z,49.93
2019-02-22T19:32:53.271Z,51.70
2019-02-22T19:35:21.787Z,50.08
2019-02-22T19:37:50.437Z,49.08
2019-02-22T19:40:22.483Z,50.63
2019-02-22T19:42:51.085Z,53.30
2019-02-22T19:45:19.998Z,52.13
2019-02-22T19:47:48.664Z,55.05
2019-02-22T19:50:17.452Z,47.78
2019-02-22T19:52:46.039Z,53.17
2019-02-22T19:55:34.075Z,52.25
2019-02-22T19:58:02.659Z,51.48
2019-02-22T20:00:31.256Z,51.00
2019-02-22T20:03:02.618Z,59.70
2019-02-22T20:05:31.491Z,58.25
2019-02-22T20:08:00.062Z,57.35
2019-02-22T20:10:28.647Z,59.93
2019-02-22T20:12:57.435Z,63.20
2019-02-22T20:15:26.018Z,60.48
2019-02-22T20:17:55.152Z,62.80
2019-02-22T20:20:24.415Z,58.68
2019-02-22T20:22:52.897Z,57.93
2019-02-22T20:25:21.539Z,63.55
2019-02-22T20:27:50.152Z,65.52
2019-02-22T20:30:19.653Z,58.52
2019-02-22T20:32:48.352Z,61.08
2019-02-22T20:35:27.587Z,62.03
2019-02-22T20:37:56.271Z,58.52
2019-02-22T20:40:25.540Z,60.15
2019-02-22T20:42:54.258Z,69.12
2019-02-22T20:45:22.844Z,67.32
2019-02-22T20:47:51.526Z,66.85
2019-02-22T20:50:20.236Z,61.45
2019-02-22T20:52:49.000Z,61.42
2019-02-22T20:55:18.199Z,68.42
2019-02-22T20:57:53.608Z,64.82
2019-02-22T21:00:24.495Z,72.32
2019-02-22T21:02:53.913Z,66.55
2019-02-22T21:05:22.773Z,62.93
2019-02-22T21:07:52.886Z,72.03
2019-02-22T21:10:22.886Z,71.28
2019-02-22T21:12:51.435Z,63.17
2019-02-22T21:15:21.522Z,71.17
2019-02-22T21:17:50.780Z,71.55
2019-02-22T21:20:20.687Z,69.75
2019-02-22T21:22:49.306Z,74.60
2019-02-22T21:25:17.998Z,66.47
2019-02-22T21:27:47.101Z,75.20
2019-02-22T21:30:18.232Z,70.25
2019-02-22T21:32:47.123Z,71.30
2019-02-22T21:35:16.386Z,68.50
2019-02-22T21:37:46.168Z,75.15
2019-02-22T21:40:15.364Z,73.95
2019-02-22T21:42:47.413Z,76.42
2019-02-22T21:45:17.141Z,61.40
2019-02-22T21:47:54.104Z,78.25
2019-02-22T21:50:17.790Z,84.85
2019-02-22T21:53:00.052Z,74.53
2019-02-22T21:55:35.997Z,75.45
2019-02-22T21:58:06.216Z,75.17
2019-02-22T22:00:39.658Z,88.27
2019-02-22T22:03:12.532Z,87.22
2019-02-22T22:05:48.499Z,87.02
2019-02-22T22:08:20.678Z,86.37
2019-02-22T22:10:51.068Z,80.25
2019-02-22T22:13:20.589Z,80.67
2019-02-22T22:15:52.124Z,76.60
2019-02-22T22:18:26.095Z,84.10
2019-02-22T22:20:56.314Z,89.07
2019-02-22T22:23:26.227Z,85.25
2019-02-22T22:25:56.540Z,92.88
2019-02-22T22:28:25.998Z,88.22
2019-02-22T22:30:55.798Z,91.70
2019-02-22T22:33:25.614Z,90.87
2019-02-22T22:35:55.026Z,94.32
2019-02-22T22:38:23.608Z,91.00
2019-02-22T22:40:54.343Z,94.22
2019-02-22T22:43:27.174Z,92.78
2019-02-22T22:45:56.410Z,93.50
2019-02-22T22:48:31.680Z,95.87
2019-02-22T22:51:02.073Z,98.33
2019-02-22T22:53:33.754Z,94.00
2019-02-22T22:56:03.751Z,97.27
2019-02-22T22:58:33.634Z,90.95
2019-02-22T23:01:08.580Z,91.95
2019-02-22T23:03:39.456Z,86.67
2019-02-22T23:06:30.332Z,97.78
2019-02-22T23:09:00.547Z,90.72
2019-02-22T23:11:34.177Z,93.92
2019-02-22T23:14:09.282Z,88.35
2019-02-22T23:16:39.022Z,91.55
2019-02-22T23:19:07.811Z,98.10
2019-02-22T23:21:37.318Z,95.97
2019-02-22T23:24:06.987Z,90.65
2019-02-22T23:26:36.021Z,97.15
2019-02-22T23:29:06.351Z,93.25
2019-02-22T23:31:35.032Z,87.97
2019-02-22T23:34:03.508Z,90.72
2019-02-22T23:36:32.092Z,84.20
2019-02-22T23:39:00.675Z,92.20
2019-02-22T23:41:29.167Z,97.05
2019-02-22T23:43:57.745Z,96.15
2019-02-22T23:46:26.429Z,95.10
2019-02-22T23:48:56.149Z,101.45
2019-02-22T23:51:29.117Z,98.82
2019-02-22T23:54:01.664Z,95.65
2019-02-22T23:58:58.253Z,89.87
